Time;durP1;ratioP1;P1;durP2;ratioP2;P2;SDS_P1;SDS_P2;PMS_P1;PMS_P2;Temp;Humidity;BMP_temperature;BMP_pressure;BME280_temperature;BME280_humidity;BME280_pressure;Samples;Min_cycle;Max_cycle;Signal;HPM_P1;HPM_P2
2022/01/26 00:07:09;;;;;;;19.25;13.35;;;;;;;1.49;73.15;100448.34;5066880;28;20068;-67
2022/01/26 00:09:42;;;;;;;21.35;14.10;;;;;;;1.47;73.19;100445.75;5065695;28;20052;-68
2022/01/26 00:12:14;;;;;;;19.73;14.02;;;;;;;1.48;73.01;100441.38;5066755;28;20297;-68
2022/01/26 00:14:48;;;;;;;24.55;14.82;;;;;;;1.48;73.14;100444.00;5065454;28;20047;-68
2022/01/26 00:17:21;;;;;;;19.23;13.60;;;;;;;1.17;73.04;100388.31;5066882;28;20044;-68
2022/01/26 00:19:59;;;;;;;17.50;12.05;;;;;;;1.52;73.15;100445.75;5066399;28;20037;-68
2022/01/26 00:22:53;;;;;;;18.70;13.23;;;;;;;1.48;73.08;100447.47;5066642;28;20086;-68
2022/01/26 00:25:36;;;;;;;20.65;15.40;;;;;;;0.37;72.91;100270.03;5066248;28;20041;-68
2022/01/26 00:28:31;;;;;;;22.90;13.35;;;;;;;1.42;73.16;100437.03;5066201;28;20347;-68
2022/01/26 00:32:00;;;;;;;19.38;13.48;;;;;;;1.39;73.20;100437.03;5066173;28;20297;-67
2022/01/26 00:38:34;;;;;;;24.15;15.45;;;;;;;1.41;73.37;100437.03;5065580;28;20111;-67
2022/01/26 00:40:10;;;;;;;22.13;15.02;;;;;;;1.11;73.34;100391.78;5065814;28;20064;-67
2022/01/26 00:42:46;;;;;;;21.23;14.82;;;;;;;1.43;73.47;100440.53;5064914;28;20257;-68
2022/01/26 00:45:22;;;;;;;23.17;15.77;;;;;;;0.27;73.42;100247.41;5065915;28;20041;-68
2022/01/26 00:47:57;;;;;;;21.38;15.07;;;;;;;1.43;73.13;100445.75;5065335;28;20100;-70
2022/01/26 00:50:32;;;;;;;21.50;15.35;;;;;;;0.88;73.29;100342.22;5048478;28;20051;-69
2022/01/26 00:53:05;;;;;;;19.95;13.70;;;;;;;1.39;73.13;100426.59;5049819;28;20048;-69
2022/01/26 00:55:38;;;;;;;18.15;12.52;;;;;;;1.14;73.11;100385.69;5065006;28;20141;-68
2022/01/26 00:58:10;;;;;;;20.67;14.13;;;;;;;1.44;73.40;100434.44;5065728;28;20099;-69
2022/01/26 01:00:43;;;;;;;18.83;13.57;;;;;;;1.46;73.27;100440.53;5065178;28;20151;-68
2022/01/26 01:03:18;;;;;;;22.65;14.20;;;;;;;1.47;73.29;100447.47;5066411;28;20048;-69
2022/01/26 01:05:52;;;;;;;20.58;15.73;;;;;;;-0.44;73.27;100155.25;5065709;28;20056;-68
2022/01/26 01:08:25;;;;;;;19.33;14.43;;;;;;;1.42;73.28;100457.06;5048180;28;20112;-68
2022/01/26 01:10:59;;;;;;;22.88;15.35;;;;;;;1.44;73.54;100447.50;5048232;28;20308;-69
2022/01/26 01:13:34;;;;;;;23.08;15.27;;;;;;;1.45;73.61;100441.41;5064596;28;20047;-69
2022/01/26 01:16:09;;;;;;;22.75;14.90;;;;;;;1.08;73.77;100383.97;5065045;28;20069;-67
2022/01/26 01:18:47;;;;;;;21.08;13.48;;;;;;;1.16;73.85;100446.63;5064713;28;20068;-66
2022/01/26 01:27:29;;;;;;;20.38;13.88;;;;;;;1.45;74.11;100449.22;5103905;28;20926;-68
2022/01/26 01:30:08;;;;;;;21.92;14.35;;;;;;;1.42;74.06;100436.16;5103170;28;20036;-68
2022/01/26 01:32:52;;;;;;;24.23;15.75;;;;;;;1.06;74.20;100379.63;5102458;28;20036;-68
2022/01/26 01:35:24;;;;;;;22.83;15.32;;;;;;;1.42;74.21;100444.00;5102886;28;20045;-68
2022/01/26 01:37:57;;;;;;;24.38;17.17;;;;;;;1.42;74.08;100441.41;5102946;28;20161;-68
2022/01/26 01:40:29;;;;;;;25.40;16.10;;;;;;;1.12;74.00;100390.91;5102721;28;20047;-69
2022/01/26 01:43:03;;;;;;;24.98;15.88;;;;;;;1.42;73.97;100449.22;5102852;28;20311;-68
2022/01/26 01:45:41;;;;;;;21.85;15.85;;;;;;;1.09;74.12;100390.06;5084760;28;20105;-68
2022/01/26 01:48:18;;;;;;;25.80;15.07;;;;;;;1.41;74.13;100453.59;5102990;28;20093;-68
2022/01/26 01:50:52;;;;;;;27.23;16.48;;;;;;;1.35;74.11;100440.53;5101799;28;20032;-68
2022/01/26 01:53:32;;;;;;;21.90;15.93;;;;;;;1.37;74.36;100449.22;5102540;28;20041;-68
2022/01/26 01:56:06;;;;;;;22.60;15.98;;;;;;;1.39;74.05;100444.88;5102419;28;20177;-68
2022/01/26 01:58:41;;;;;;;23.37;16.33;;;;;;;1.11;74.08;100390.91;5102675;28;20041;-68
2022/01/26 02:01:13;;;;;;;22.27;15.07;;;;;;;1.03;74.31;100384.84;5101781;28;20040;-68
2022/01/26 02:03:45;;;;;;;26.65;15.90;;;;;;;1.36;74.15;100431.81;5102478;28;20040;-68
2022/01/26 02:06:18;;;;;;;25.35;16.20;;;;;;;1.33;74.16;100428.34;5102141;28;20089;-68
2022/01/26 02:08:50;;;;;;;27.92;16.38;;;;;;;1.33;74.25;100433.56;5102381;28;20093;-68
2022/01/26 02:11:20;;;;;;;21.92;14.27;;;;;;;1.30;74.42;100431.81;5102142;28;20103;-68
2022/01/26 02:14:00;;;;;;;23.63;14.95;;;;;;;1.31;74.28;100433.56;5084249;28;20299;-68
2022/01/26 02:16:40;;;;;;;23.95;15.77;;;;;;;1.31;74.47;100437.91;5102094;28;20044;-68
2022/01/26 02:19:48;;;;;;;27.23;16.73;;;;;;;1.25;74.35;100426.59;5102215;28;20036;-67
2022/01/26 02:53:50;;;;;;;24.77;15.60;;;;;;;0.41;74.10;100290.00;5078961;28;20111;-67
2022/01/26 02:56:26;;;;;;;23.42;15.13;;;;;;;0.79;74.39;100355.25;5088454;28;20109;-69
2022/01/26 03:04:34;;;;;;;25.70;16.85;;;;;;;0.37;74.47;100263.94;5085794;28;20072;-68
2022/01/26 03:07:12;;;;;;;25.88;16.25;;;;;;;-0.05;74.03;100209.16;5087741;28;20044;-67
2022/01/26 03:09:49;;;;;;;23.67;15.10;;;;;;;1.08;74.37;100391.78;5086787;28;20055;-67
2022/01/26 03:12:30;;;;;;;30.15;17.90;;;;;;;1.06;74.42;100387.44;5087482;28;20044;-68
2022/01/26 03:15:12;;;;;;;23.25;16.50;;;;;;;1.05;74.51;100390.94;5087430;28;20041;-67
2022/01/26 03:17:59;;;;;;;23.13;14.15;;;;;;;1.08;74.40;100385.69;5087654;28;20082;-67
2022/01/26 03:20:33;;;;;;;26.98;15.00;;;;;;;1.11;74.25;100393.53;5086493;28;20062;-67
2022/01/26 03:28:58;;;;;;;25.83;15.38;;;;;;;-1.32;74.30;99993.66;5087378;28;20108;-67
2022/01/26 03:32:11;;;;;;;25.73;16.05;;;;;;;0.76;74.37;100347.44;5087357;28;20041;-68
2022/01/26 03:34:38;;;;;;;23.10;14.65;;;;;;;0.70;74.40;100339.59;5087273;28;20036;-67
2022/01/26 03:37:10;;;;;;;25.95;17.15;;;;;;;1.01;74.46;100389.19;5086146;28;20342;-68
2022/01/26 03:39:44;;;;;;;22.60;14.50;;;;;;;1.01;74.37;100394.41;5087140;28;20036;-68
2022/01/26 03:42:16;;;;;;;24.35;15.27;;;;;;;0.99;74.23;100389.19;5086846;28;20048;-67
2022/01/26 03:44:50;;;;;;;24.83;15.85;;;;;;;1.04;74.41;100391.78;5086013;28;20040;-67
2022/01/26 03:47:22;;;;;;;23.02;14.77;;;;;;;0.09;74.15;100253.47;5086728;28;20094;-66
2022/01/26 03:49:54;;;;;;;22.80;15.20;;;;;;;1.03;74.43;100405.72;5086149;28;20040;-67
2022/01/26 03:52:26;;;;;;;26.08;14.05;;;;;;;0.53;74.48;100323.06;5086231;28;20082;-68
2022/01/26 03:54:59;;;;;;;26.83;16.02;;;;;;;1.00;74.49;100400.50;5085809;28;20297;-67
2022/01/26 03:57:34;;;;;;;24.38;13.93;;;;;;;0.73;74.38;100349.16;5086661;28;20040;-67
2022/01/26 04:00:09;;;;;;;22.58;16.88;;;;;;;1.00;74.22;100390.94;5086898;28;20089;-67
2022/01/26 04:02:41;;;;;;;23.33;15.90;;;;;;;-0.39;73.98;100163.06;5085868;28;20053;-67
2022/01/26 04:05:13;;;;;;;21.88;15.15;;;;;;;1.03;74.12;100400.50;5085718;28;20041;-68
2022/01/26 04:07:46;;;;;;;23.73;15.27;;;;;;;1.01;73.95;100392.66;5086605;28;20048;-67
2022/01/26 04:10:28;;;;;;;20.38;14.18;;;;;;;0.33;74.03;100270.88;5086588;28;20037;-67
2022/01/26 04:13:00;;;;;;;24.00;14.15;;;;;;;0.93;73.98;100379.63;5086629;28;20082;-67
2022/01/26 04:15:35;;;;;;;24.40;14.90;;;;;;;1.00;74.17;100384.84;5086329;28;20354;-67
2022/01/26 04:18:12;;;;;;;;;;;;;;;0.96;74.12;100389.19;5086879;28;20094;-67
2022/01/26 04:20:48;;;;;;;23.23;16.10;;;;;;;0.93;74.29;100392.66;5086565;28;19974;-67
2022/01/26 04:23:26;;;;;;;23.90;15.00;;;;;;;0.98;74.20;100392.66;5086481;28;20349;-67
2022/01/26 04:25:59;;;;;;;25.40;13.68;;;;;;;1.02;73.92;100390.94;5085767;28;20385;-67
2022/01/26 04:28:38;;;;;;;25.67;15.52;;;;;;;1.04;73.83;100390.06;5086547;28;20040;-67
2022/01/26 04:31:11;;;;;;;23.17;14.52;;;;;;;1.02;73.70;100386.56;5086183;28;20231;-67
2022/01/26 04:33:44;;;;;;;22.20;14.23;;;;;;;0.96;73.81;100375.25;5085406;28;20041;-67
2022/01/26 04:36:23;;;;;;;25.17;15.40;;;;;;;0.28;73.63;100257.84;5085829;28;20312;-67
2022/01/26 04:38:52;;;;;;;20.75;14.02;;;;;;;0.99;74.11;100383.97;5085952;28;20097;-66
2022/01/26 04:41:29;;;;;;;23.77;15.27;;;;;;;1.01;73.94;100379.63;5086240;28;20040;-67
2022/01/26 04:44:08;;;;;;;24.27;14.73;;;;;;;1.00;74.16;100387.44;5068118;28;20051;-67
2022/01/26 04:46:42;;;;;;;24.50;14.73;;;;;;;0.59;73.92;100315.25;5085863;28;20246;-67
2022/01/26 04:49:15;;;;;;;25.92;15.40;;;;;;;0.98;73.90;100373.53;5085637;28;20146;-68
2022/01/26 04:51:50;;;;;;;22.40;13.57;;;;;;;-0.27;73.96;100190.88;5085850;28;20044;-67
2022/01/26 04:54:22;;;;;;;24.75;15.00;;;;;;;0.97;73.95;100366.56;5085517;28;20036;-68
2022/01/26 04:56:55;;;;;;;24.33;15.70;;;;;;;0.97;73.88;100359.59;5084729;28;20261;-68
2022/01/26 04:59:27;;;;;;;22.80;15.90;;;;;;;0.94;73.93;100360.47;5085552;28;20040;-67
2022/01/26 05:02:01;;;;;;;20.88;13.93;;;;;;;0.91;74.05;100362.22;5085742;28;20040;-67
2022/01/26 05:04:33;;;;;;;25.88;17.13;;;;;;;0.90;74.17;100363.97;5085348;28;20231;-67
2022/01/26 05:07:05;;;;;;;22.52;14.30;;;;;;;0.96;74.16;100362.22;5085141;28;20150;-68
2022/01/26 05:09:39;;;;;;;19.80;13.18;;;;;;;0.92;74.10;100356.13;5085412;28;20283;-68
2022/01/26 05:12:13;;;;;;;20.88;12.93;;;;;;;0.94;74.31;100385.72;5085556;28;20186;-67
2022/01/26 05:14:47;;;;;;;22.30;14.30;;;;;;;0.77;73.97;100377.88;5085389;28;20041;-68
2022/01/26 05:17:22;;;;;;;24.92;14.88;;;;;;;0.94;73.98;100359.59;5085647;28;20044;-68
2022/01/26 05:19:57;;;;;;;25.52;15.65;;;;;;;0.93;74.11;100369.19;5084735;28;20064;-67
2022/01/26 05:22:31;;;;;;;22.02;13.48;;;;;;;0.89;74.07;100370.03;5084465;28;20044;-67
2022/01/26 05:25:04;;;;;;;22.97;15.00;;;;;;;0.89;74.02;100377.88;5085337;28;20374;-67
2022/01/26 05:27:36;;;;;;;22.73;13.73;;;;;;;0.06;74.00;100276.94;5085040;28;20090;-67
2022/01/26 05:30:10;;;;;;;24.05;14.77;;;;;;;0.89;74.12;100377.88;5085100;28;20093;-67
2022/01/26 05:32:44;;;;;;;23.13;15.15;;;;;;;0.03;73.96;100218.72;5084284;28;20044;-67
2022/01/26 05:35:16;;;;;;;24.13;15.75;;;;;;;0.90;74.19;100374.41;5084351;28;20094;-67
2022/01/26 05:37:48;;;;;;;25.40;15.20;;;;;;;0.92;74.00;100377.88;5085403;28;20044;-67
2022/01/26 05:40:20;;;;;;;22.30;14.93;;;;;;;0.93;74.52;100368.31;5084261;28;20048;-67
2022/01/26 05:42:53;;;;;;;22.27;15.10;;;;;;;0.90;74.13;100381.34;5084369;28;20044;-67
2022/01/26 05:45:30;;;;;;;23.30;13.63;;;;;;;0.87;74.10;100373.53;5085309;28;20293;-67
2022/01/26 05:48:09;;;;;;;26.33;15.63;;;;;;;0.90;74.10;100382.22;5084121;28;20052;-67
2022/01/26 05:50:50;;;;;;;26.55;17.13;;;;;;;0.63;74.00;100326.53;5084811;28;20094;-68
2022/01/26 05:53:22;;;;;;;23.80;15.70;;;;;;;0.96;73.99;100383.09;5085124;28;20058;-67
2022/01/26 05:55:55;;;;;;;21.63;14.48;;;;;;;0.91;74.08;100381.34;5084836;28;20040;-67
2022/01/26 05:58:27;;;;;;;22.95;13.15;;;;;;;0.93;73.92;100389.19;5085096;28;20049;-67
2022/01/26 06:01:01;;;;;;;23.50;14.35;;;;;;;0.94;73.82;100385.72;5084805;28;20051;-67
2022/01/26 06:03:34;;;;;;;25.23;15.55;;;;;;;0.96;73.86;100388.31;5085062;28;20284;-67
2022/01/26 06:06:07;;;;;;;23.35;14.85;;;;;;;0.97;74.00;100406.59;5084910;28;20052;-67
2022/01/26 06:08:39;;;;;;;23.45;14.18;;;;;;;1.01;73.77;100391.78;5083888;28;20045;-67
2022/01/26 06:11:11;;;;;;;22.85;13.57;;;;;;;-0.43;73.54;100157.00;5084679;28;20036;-67
2022/01/26 06:13:43;;;;;;;17.90;14.20;;;;;;;-1.49;73.48;100005.75;5088293;28;20090;-67
2022/01/26 06:16:16;;;;;;;21.83;15.63;;;;;;;0.95;73.72;100397.88;5088524;28;20082;-67
2022/01/26 06:18:47;;;;;;;23.02;14.98;;;;;;;0.96;73.56;100394.41;5088375;28;20064;-68
2022/01/26 06:21:16;;;;;;;20.73;13.10;;;;;;;0.94;73.63;100388.31;5088424;28;20357;-68
2022/01/26 06:23:46;;;;;;;21.58;12.73;;;;;;;0.70;73.60;100351.78;5088643;28;20153;-67
2022/01/26 06:26:16;;;;;;;22.75;14.30;;;;;;;0.97;73.50;100385.72;5088589;28;20094;-68
2022/01/26 06:28:46;;;;;;;19.80;13.48;;;;;;;0.97;73.52;100390.06;5088139;28;20040;-68
2022/01/26 06:31:18;;;;;;;22.13;14.93;;;;;;;0.95;73.34;100397.88;5088181;28;20303;-68
2022/01/26 06:33:49;;;;;;;19.90;13.18;;;;;;;0.93;73.33;100395.28;5088648;28;20158;-68
2022/01/26 06:36:18;;;;;;;26.25;16.98;;;;;;;0.34;73.41;100288.28;5087347;28;20107;-68
2022/01/26 06:38:49;;;;;;;19.98;13.85;;;;;;;0.98;73.44;100390.06;5087905;28;20052;-68
2022/01/26 06:41:23;;;;;;;21.15;13.43;;;;;;;0.93;73.41;100395.28;5087888;28;20048;-68
2022/01/26 06:44:01;;;;;;;24.83;13.68;;;;;;;0.93;73.51;100389.19;5087431;28;20375;-68
2022/01/26 06:46:43;;;;;;;18.13;12.57;;;;;;;0.92;73.39;100387.44;5087061;28;20044;-68
2022/01/26 06:49:32;;;;;;;21.40;12.85;;;;;;;0.91;73.41;100394.41;5087953;28;20368;-68
2022/01/26 06:52:05;;;;;;;22.48;12.88;;;;;;;0.07;73.46;100249.13;5087066;28;20060;-68
2022/01/26 06:54:38;;;;;;;21.30;11.90;;;;;;;0.31;73.27;100301.31;5087520;28;20040;-68
2022/01/26 06:57:10;;;;;;;22.98;13.45;;;;;;;0.92;73.47;100392.66;5087205;28;20046;-68
2022/01/26 06:59:45;;;;;;;24.60;12.50;;;;;;;0.64;73.50;100347.41;5070170;28;20045;-68
2022/01/26 07:02:17;;;;;;;;;;;;;;;0.86;73.46;100390.91;5070850;28;20121;-69
2022/01/26 07:04:51;;;;;;;21.98;12.50;;;;;;;0.57;73.57;100343.06;5087568;28;19946;-68
2022/01/26 07:07:23;;;;;;;17.38;11.85;;;;;;;0.92;73.58;100395.28;5086718;28;20063;-69
2022/01/26 07:09:56;;;;;;;21.98;12.73;;;;;;;0.88;73.63;100401.38;5086790;28;20038;-68
2022/01/26 07:12:30;;;;;;;25.65;14.95;;;;;;;0.89;73.55;100400.50;5069499;28;20087;-68
2022/01/26 07:23:36;;;;;;;19.25;11.95;;;;;;;0.89;73.64;100405.72;5086801;28;20128;-68
2022/01/26 07:26:09;;;;;;;16.33;11.57;;;;;;;0.31;73.38;100303.03;5086679;28;20224;-68
2022/01/26 07:28:42;;;;;;;21.73;12.77;;;;;;;0.61;73.39;100358.72;5086202;28;20097;-68
2022/01/26 07:31:14;;;;;;;20.08;12.60;;;;;;;0.89;73.58;100410.94;5087024;28;20040;-68
2022/01/26 07:33:52;;;;;;;15.57;11.20;;;;;;;-0.06;73.41;100236.09;5086449;28;20037;-69
2022/01/26 07:36:24;;;;;;;23.27;12.85;;;;;;;0.88;73.22;100403.97;5086927;28;20082;-69
2022/01/26 07:38:54;;;;;;;22.65;13.02;;;;;;;0.87;73.35;100410.94;5087005;28;20062;-69
2022/01/26 07:41:26;;;;;;;19.45;12.27;;;;;;;0.88;73.31;100409.19;5087015;28;20045;-68
2022/01/26 07:43:59;;;;;;;19.63;11.35;;;;;;;0.89;73.28;100413.53;5086761;28;20090;-68
2022/01/26 07:46:32;;;;;;;23.40;14.07;;;;;;;0.87;73.37;100403.09;5086286;28;20051;-67
2022/01/26 07:49:04;;;;;;;21.40;14.50;;;;;;;0.88;73.41;100402.22;5086846;28;20045;-67
2022/01/26 07:51:38;;;;;;;21.02;14.02;;;;;;;0.87;73.34;100405.72;5086926;28;20044;-67
2022/01/26 07:54:10;;;;;;;23.65;13.18;;;;;;;0.87;73.35;100408.31;5086811;28;20044;-68
2022/01/26 07:56:43;;;;;;;21.27;12.57;;;;;;;0.91;73.36;100411.81;5087007;28;20223;-67
2022/01/26 07:59:15;;;;;;;23.55;13.50;;;;;;;0.91;73.47;100412.69;5086390;28;20152;-68
2022/01/26 08:01:48;;;;;;;18.55;12.35;;;;;;;0.42;72.94;100327.41;5086402;28;20224;-67
2022/01/26 08:04:20;;;;;;;22.75;12.50;;;;;;;0.91;73.25;100414.41;5086475;28;20090;-68
2022/01/26 08:06:54;;;;;;;23.35;13.98;;;;;;;0.92;73.15;100413.53;5086296;28;20047;-67
2022/01/26 08:09:26;;;;;;;22.55;12.80;;;;;;;0.91;73.16;100410.06;5086404;28;20056;-67
2022/01/26 08:11:58;;;;;;;20.95;11.93;;;;;;;0.91;73.24;100401.38;5086332;28;20040;-67
2022/01/26 08:14:30;;;;;;;18.67;13.00;;;;;;;-0.63;73.03;100143.06;5085576;28;20056;-68
2022/01/26 08:17:03;;;;;;;22.42;12.98;;;;;;;0.92;73.05;100410.94;5086003;28;20045;-67
2022/01/26 08:19:36;;;;;;;22.70;13.93;;;;;;;0.93;73.13;100405.72;5086192;28;20106;-67
2022/01/26 08:22:16;;;;;;;19.73;12.43;;;;;;;0.96;72.91;100420.50;5086274;28;20090;-67
2022/01/26 08:24:49;;;;;;;20.02;12.38;;;;;;;0.99;72.94;100404.84;5085713;28;20040;-67
2022/01/26 08:27:25;;;;;;;18.17;12.68;;;;;;;0.88;72.75;100378.75;5085835;28;20044;-67
2022/01/26 08:30:05;;;;;;;24.90;13.77;;;;;;;0.97;72.72;100403.09;5085660;28;20106;-68
2022/01/26 08:32:38;;;;;;;20.02;14.45;;;;;;;0.92;72.67;100397.88;5085644;28;20037;-67
2022/01/26 08:35:10;;;;;;;21.13;12.82;;;;;;;0.96;72.61;100401.38;5085375;28;20203;-67
2022/01/26 08:37:44;;;;;;;19.95;12.73;;;;;;;0.96;72.55;100398.75;5085693;28;20041;-67
2022/01/26 08:40:16;;;;;;;23.42;14.32;;;;;;;0.97;72.75;100403.09;5084772;28;20048;-67
2022/01/26 08:42:49;;;;;;;20.23;13.32;;;;;;;0.95;72.37;100405.72;5085425;28;20204;-67
2022/01/26 08:45:21;;;;;;;16.40;10.82;;;;;;;0.96;72.46;100402.25;5084911;28;20044;-67
2022/01/26 08:47:53;;;;;;;21.25;11.10;;;;;;;0.93;72.35;100399.63;5085399;28;20090;-68
2022/01/26 08:50:25;;;;;;;21.02;11.93;;;;;;;0.09;72.33;100273.47;5085723;28;20044;-67
2022/01/26 08:52:59;;;;;;;19.23;12.00;;;;;;;0.95;71.75;100395.28;5085453;28;20041;-68
2022/01/26 08:55:33;;;;;;;20.13;11.67;;;;;;;0.98;72.12;100402.25;5085404;28;20040;-68
2022/01/26 08:58:06;;;;;;;19.83;13.35;;;;;;;0.96;71.71;100394.41;5085699;28;20044;-67
2022/01/26 09:00:39;;;;;;;19.98;11.48;;;;;;;0.93;71.96;100381.34;5085401;28;20086;-68
2022/01/26 09:03:11;;;;;;;19.95;11.82;;;;;;;0.96;71.79;100399.63;5085297;28;20247;-68
2022/01/26 09:05:44;;;;;;;23.50;12.30;;;;;;;0.96;71.91;100390.94;5085310;28;20040;-67
2022/01/26 09:08:18;;;;;;;16.75;10.98;;;;;;;1.00;71.71;100393.53;5084372;28;20044;-67
2022/01/26 09:10:56;;;;;;;15.50;10.70;;;;;;;1.02;71.68;100399.63;5085298;28;20048;-67
2022/01/26 09:13:31;;;;;;;19.65;11.13;;;;;;;1.02;71.40;100417.03;5085416;28;20044;-67
2022/01/26 09:16:06;;;;;;;16.63;11.10;;;;;;;0.67;71.44;100330.91;5085151;28;20044;-67
2022/01/26 09:18:47;;;;;;;19.08;11.25;;;;;;;0.97;71.71;100397.88;5084377;28;20086;-67
2022/01/26 09:21:21;;;;;;;19.10;11.15;;;;;;;-4.32;71.37;99499.31;5085091;28;20047;-68
2022/01/26 09:23:51;;;;;;;20.20;10.75;;;;;;;1.01;71.77;100405.72;5085266;28;20044;-67
2022/01/26 09:26:20;;;;;;;18.88;11.77;;;;;;;0.41;71.60;100303.06;5083932;28;20118;-67
2022/01/26 09:28:50;;;;;;;17.42;11.38;;;;;;;1.03;71.37;100403.09;5085411;28;20032;-67
2022/01/26 09:31:20;;;;;;;19.77;11.82;;;;;;;1.06;71.65;100401.38;5085276;28;20052;-67
2022/01/26 09:33:50;;;;;;;22.27;11.07;;;;;;;0.75;71.49;100358.72;5085784;28;20108;-68
2022/01/26 09:36:20;;;;;;;16.98;11.32;;;;;;;1.06;71.42;100403.97;5085352;28;20036;-68
2022/01/26 09:38:51;;;;;;;18.15;11.60;;;;;;;1.07;71.14;100403.09;5084218;28;20047;-68
2022/01/26 09:41:21;;;;;;;18.02;12.13;;;;;;;1.08;71.43;100403.97;5084980;28;20094;-68
2022/01/26 09:43:51;;;;;;;19.00;10.98;;;;;;;1.08;70.87;100436.19;5084855;28;20044;-68
2022/01/26 09:46:21;;;;;;;19.65;12.13;;;;;;;1.09;70.90;100403.97;5085116;28;20029;-68
2022/01/26 09:48:51;;;;;;;13.85;10.00;;;;;;;1.07;70.82;100405.72;5087983;28;20116;-68
2022/01/26 09:51:21;;;;;;;20.25;10.35;;;;;;;1.10;71.15;100402.25;5089222;28;20107;-68
2022/01/26 09:54:02;;;;;;;16.75;10.23;;;;;;;1.13;70.84;100397.00;5088101;28;20115;-68
2022/01/26 09:56:34;;;;;;;17.65;9.63;;;;;;;1.13;70.94;100392.66;5087968;28;20044;-68
2022/01/26 09:59:07;;;;;;;17.88;10.70;;;;;;;1.17;70.99;100390.91;5089032;28;20086;-68
2022/01/26 10:01:44;;;;;;;16.10;11.18;;;;;;;-0.50;70.50;100112.72;5089041;28;20086;-68
2022/01/26 10:04:20;;;;;;;19.73;11.70;;;;;;;1.20;70.71;100398.75;5088569;28;20048;-68
2022/01/26 10:07:00;;;;;;;15.73;9.82;;;;;;;1.21;70.48;100387.44;5087673;28;20041;-68
2022/01/26 10:09:58;;;;;;;19.33;10.05;;;;;;;1.18;70.57;100390.91;5088272;28;20048;-68
2022/01/26 10:15:35;;;;;;;15.20;10.45;;;;;;;1.18;70.40;100392.66;5088254;28;20094;-68
2022/01/26 10:18:11;;;;;;;14.10;8.20;;;;;;;1.20;70.07;100386.56;5087579;28;20045;-68
2022/01/26 10:20:46;;;;;;;13.07;8.73;;;;;;;1.19;70.00;100397.88;5088377;28;20288;-68
2022/01/26 10:23:20;;;;;;;14.98;10.60;;;;;;;1.20;70.18;100391.78;5088695;28;20044;-68
2022/01/26 10:26:03;;;;;;;16.10;9.27;;;;;;;1.21;69.58;100387.44;5088205;28;20126;-68
2022/01/26 10:28:44;;;;;;;13.30;9.52;;;;;;;0.91;69.34;100334.38;5088125;28;20292;-68
2022/01/26 10:31:18;;;;;;;13.43;8.95;;;;;;;1.19;69.34;100395.28;5088236;28;20045;-68
2022/01/26 10:33:55;;;;;;;14.27;8.13;;;;;;;1.20;69.09;100389.19;5088119;28;20082;-68
2022/01/26 10:36:25;;;;;;;14.10;9.50;;;;;;;0.91;69.24;100333.50;5088353;28;20089;-68
2022/01/26 10:38:59;;;;;;;13.25;9.15;;;;;;;1.22;69.09;100666.00;5088183;28;20024;-68
2022/01/26 10:41:33;;;;;;;11.80;7.70;;;;;;;0.78;69.56;100282.19;5087821;28;20223;-68
2022/01/26 10:44:07;;;;;;;16.50;8.55;;;;;;;1.26;69.30;100388.31;5088177;28;20082;-68
2022/01/26 10:46:41;;;;;;;16.02;9.63;;;;;;;1.31;69.33;100375.22;5088086;28;20098;-68
2022/01/26 10:49:19;;;;;;;13.60;8.00;;;;;;;1.26;68.71;100372.63;5087788;28;20048;-68
2022/01/26 10:52:00;;;;;;;14.30;9.18;;;;;;;0.97;69.20;100324.78;5087849;28;20062;-68
2022/01/26 10:54:37;;;;;;;14.98;9.45;;;;;;;1.30;68.92;100374.38;5087818;28;20231;-68
2022/01/26 10:57:12;;;;;;;14.07;8.73;;;;;;;1.03;68.74;100319.56;5087644;28;20093;-68
2022/01/26 10:59:46;;;;;;;;;;;;;;;1.30;67.75;100376.97;5088045;28;20048;-68
2022/01/26 11:02:24;;;;;;;11.90;8.30;;;;;;;0.04;68.24;100208.28;5087939;28;19916;-68
2022/01/26 11:04:56;;;;;;;11.90;8.10;;;;;;;1.30;68.47;100363.91;5086847;28;20208;-68
2022/01/26 11:07:32;;;;;;;17.13;9.02;;;;;;;1.31;68.65;100357.81;5087755;28;20078;-69
2022/01/26 11:10:06;;;;;;;12.98;8.48;;;;;;;1.32;68.29;100354.34;5087719;28;20040;-68
2022/01/26 11:12:42;;;;;;;13.02;8.23;;;;;;;1.29;68.39;100343.03;5087642;28;20059;-69
2022/01/26 11:15:16;;;;;;;16.88;10.82;;;;;;;1.31;68.81;100344.75;5087439;28;20044;-68
2022/01/26 11:17:48;;;;;;;12.10;7.30;;;;;;;1.36;68.61;100339.53;5087394;28;20048;-68
2022/01/26 11:20:30;;;;;;;15.00;8.55;;;;;;;1.40;68.39;100338.66;5086763;28;20040;-68
2022/01/26 11:23:05;;;;;;;14.18;8.40;;;;;;;1.40;67.99;100328.19;5087382;28;20062;-68
2022/01/26 11:25:41;;;;;;;;;;;;;;;1.36;67.42;100334.31;5087912;28;20056;-68
2022/01/26 11:28:20;;;;;;;11.35;7.55;;;;;;;1.07;67.95;100279.53;5087768;28;20164;-67
2022/01/26 11:30:58;;;;;;;12.02;8.55;;;;;;;-0.94;67.90;100084.84;5087942;28;20044;-67
2022/01/26 11:33:34;;;;;;;15.98;8.98;;;;;;;1.44;68.52;100324.72;5087691;28;20302;-68
2022/01/26 11:36:06;;;;;;;14.13;9.25;;;;;;;1.46;68.35;100310.78;5087235;28;20058;-67
2022/01/26 11:42:10;;;;;;;13.40;8.35;;;;;;;-0.21;67.52;100017.22;5087031;28;20060;-67
2022/01/26 11:45:07;;;;;;;12.85;8.77;;;;;;;1.50;68.04;100309.88;5086763;28;20078;-67
2022/01/26 11:47:42;;;;;;;12.55;7.93;;;;;;;1.49;67.99;100291.59;5086518;28;20045;-68
2022/01/26 11:50:20;;;;;;;11.40;7.82;;;;;;;0.94;67.44;100198.63;5086848;28;20132;-67
2022/01/26 11:52:59;;;;;;;12.93;8.10;;;;;;;1.55;67.51;100300.28;5086822;28;20040;-68
2022/01/26 11:55:38;;;;;;;14.02;8.85;;;;;;;1.57;67.56;100297.66;5086032;28;20044;-68
2022/01/26 11:58:15;;;;;;;16.42;9.02;;;;;;;1.53;67.50;100302.03;5086431;28;20044;-68
2022/01/26 12:00:58;;;;;;;13.30;7.90;;;;;;;0.10;67.14;100038.88;5086330;28;20045;-68
2022/01/26 12:03:32;;;;;;;13.30;7.95;;;;;;;1.56;67.77;100294.19;5086581;28;20041;-68
2022/01/26 12:06:04;;;;;;;13.40;7.53;;;;;;;1.57;67.56;100285.47;5085723;28;20048;-68
2022/01/26 12:08:38;;;;;;;11.90;8.50;;;;;;;1.62;67.44;100287.22;5086311;28;20231;-68
2022/01/26 12:11:13;;;;;;;13.32;8.18;;;;;;;1.63;67.68;100282.00;5085361;28;20079;-68
2022/01/26 12:13:50;;;;;;;13.30;8.73;;;;;;;1.66;67.35;100275.91;5086412;28;20055;-68
2022/01/26 12:16:24;;;;;;;18.65;9.07;;;;;;;1.64;67.34;100275.91;5086175;28;20051;-68
2022/01/26 12:19:08;;;;;;;11.85;7.72;;;;;;;1.61;66.93;100269.81;5086092;28;20086;-67
2022/01/26 12:36:20;;;;;;;11.63;7.90;;;;;;;1.65;67.11;100251.50;5024546;28;20046;-68
2022/01/26 12:38:58;;;;;;;10.30;6.80;;;;;;;1.34;66.71;100208.06;5024696;28;20076;-68
2022/01/26 12:41:32;;;;;;;12.50;7.63;;;;;;;1.66;67.20;100255.00;5065210;28;20106;-68
2022/01/26 12:44:09;;;;;;;14.65;8.40;;;;;;;1.68;66.78;100245.41;5085686;28;20205;-67
2022/01/26 12:46:42;;;;;;;11.65;7.03;;;;;;;1.68;67.00;100241.03;5085671;28;20040;-68
2022/01/26 12:49:19;;;;;;;12.52;8.02;;;;;;;0.59;66.77;100119.59;5086106;28;20090;-68
2022/01/26 12:51:54;;;;;;;12.45;7.95;;;;;;;1.67;66.57;100241.91;5085807;28;20353;-68
2022/01/26 12:54:26;;;;;;;11.50;8.30;;;;;;;1.38;66.83;100184.53;5084947;28;20041;-68
2022/01/26 12:57:05;;;;;;;12.40;7.80;;;;;;;1.68;66.04;100248.88;5085628;28;20086;-68
2022/01/26 12:59:38;;;;;;;12.57;7.43;;;;;;;1.66;66.75;100247.16;5084481;28;20051;-69
2022/01/26 13:02:11;;;;;;;19.45;8.13;;;;;;;1.70;66.88;100246.25;5085495;28;20120;-69
2022/01/26 13:04:45;;;;;;;13.27;8.35;;;;;;;1.64;66.73;100246.28;5084564;28;20104;-68
2022/01/26 13:07:18;;;;;;;16.05;7.97;;;;;;;1.25;68.11;100177.66;5085253;28;20337;-68
2022/01/26 13:09:50;;;;;;;13.15;8.70;;;;;;;1.75;66.91;100247.09;5084326;28;20048;-69
2022/01/26 13:12:29;;;;;;;15.27;9.05;;;;;;;1.75;66.54;100249.72;5085331;28;20087;-69
2022/01/26 13:15:09;;;;;;;14.95;9.32;;;;;;;1.72;66.64;100249.72;5085530;28;20090;-69
2022/01/26 13:17:46;;;;;;;15.27;9.38;;;;;;;1.38;66.84;100189.78;5085711;28;20040;-69
2022/01/26 13:20:34;;;;;;;13.50;8.43;;;;;;;1.66;66.70;100249.75;5085383;28;20097;-69
2022/01/26 13:23:20;;;;;;;13.38;8.50;;;;;;;1.68;66.28;100256.72;5085142;28;20040;-69